sensor_id;sensor_type;location;lat;lon;timestamp;P1;durP1;ratioP1;P2;durP2;ratioP2
52642;SDS011;38531;53.296;6.614;2023-05-07T00:00:20;19.90;;;11.30;;
52642;SDS011;38531;53.296;6.614;2023-05-07T00:02:46;17.08;;;10.30;;
52642;SDS011;38531;53.296;6.614;2023-05-07T00:05:11;18.50;;;11.27;;
52642;SDS011;38531;53.296;6.614;2023-05-07T00:07:37;16.02;;;10.32;;
52642;SDS011;38531;53.296;6.614;2023-05-07T00:10:03;18.27;;;11.38;;
52642;SDS011;38531;53.296;6.614;2023-05-07T00:12:31;18.58;;;11.70;;
52642;SDS011;38531;53.296;6.614;2023-05-07T00:14:58;20.77;;;12.10;;
52642;SDS011;38531;53.296;6.614;2023-05-07T00:17:28;16.70;;;11.27;;
52642;SDS011;38531;53.296;6.614;2023-05-07T00:19:55;18.30;;;11.00;;
52642;SDS011;38531;53.296;6.614;2023-05-07T00:22:20;17.95;;;11.07;;
52642;SDS011;38531;53.296;6.614;2023-05-07T00:24:46;18.02;;;11.35;;
52642;SDS011;38531;53.296;6.614;2023-05-07T00:27:12;22.05;;;11.13;;
52642;SDS011;38531;53.296;6.614;2023-05-07T00:29:37;18.98;;;10.48;;
52642;SDS011;38531;53.296;6.614;2023-05-07T00:32:03;17.38;;;9.77;;
52642;SDS011;38531;53.296;6.614;2023-05-07T00:34:30;18.02;;;9.90;;
52642;SDS011;38531;53.296;6.614;2023-05-07T00:36:55;19.05;;;11.02;;
52642;SDS011;38531;53.296;6.614;2023-05-07T00:39:21;18.88;;;10.93;;
52642;SDS011;38531;53.296;6.614;2023-05-07T00:41:47;19.48;;;11.77;;
52642;SDS011;38531;53.296;6.614;2023-05-07T00:44:13;17.10;;;10.57;;
52642;SDS011;38531;53.296;6.614;2023-05-07T00:46:39;20.95;;;11.48;;
52642;SDS011;38531;53.296;6.614;2023-05-07T00:49:06;22.60;;;13.02;;
52642;SDS011;38531;53.296;6.614;2023-05-07T00:51:32;20.13;;;11.75;;
52642;SDS011;38531;53.296;6.614;2023-05-07T00:53:59;18.05;;;11.52;;
52642;SDS011;38531;53.296;6.614;2023-05-07T00:56:27;17.58;;;10.90;;
52642;SDS011;38531;53.296;6.614;2023-05-07T00:58:53;15.63;;;10.25;;
52642;SDS011;38531;53.296;6.614;2023-05-07T01:01:19;19.75;;;11.68;;
52642;SDS011;38531;53.296;6.614;2023-05-07T01:03:44;20.92;;;12.65;;
52642;SDS011;38531;53.296;6.614;2023-05-07T01:06:10;20.70;;;12.07;;
52642;SDS011;38531;53.296;6.614;2023-05-07T01:08:38;20.00;;;12.30;;
52642;SDS011;38531;53.296;6.614;2023-05-07T01:11:06;24.23;;;14.18;;
52642;SDS011;38531;53.296;6.614;2023-05-07T01:13:33;18.88;;;12.38;;
52642;SDS011;38531;53.296;6.614;2023-05-07T01:16:00;20.25;;;11.65;;
52642;SDS011;38531;53.296;6.614;2023-05-07T01:18:26;22.88;;;14.93;;
52642;SDS011;38531;53.296;6.614;2023-05-07T01:20:52;23.23;;;14.10;;
52642;SDS011;38531;53.296;6.614;2023-05-07T01:23:18;23.80;;;13.25;;
52642;SDS011;38531;53.296;6.614;2023-05-07T01:25:53;24.42;;;14.55;;
52642;SDS011;38531;53.296;6.614;2023-05-07T01:28:19;25.23;;;15.02;;
52642;SDS011;38531;53.296;6.614;2023-05-07T01:30:46;27.05;;;15.68;;
52642;SDS011;38531;53.296;6.614;2023-05-07T01:33:21;27.45;;;16.25;;
52642;SDS011;38531;53.296;6.614;2023-05-07T01:35:48;26.67;;;15.45;;
52642;SDS011;38531;53.296;6.614;2023-05-07T01:38:18;29.20;;;16.63;;
52642;SDS011;38531;53.296;6.614;2023-05-07T01:40:45;27.73;;;16.67;;
52642;SDS011;38531;53.296;6.614;2023-05-07T01:43:11;28.70;;;16.30;;
52642;SDS011;38531;53.296;6.614;2023-05-07T01:45:37;31.02;;;17.38;;
52642;SDS011;38531;53.296;6.614;2023-05-07T01:48:04;25.58;;;15.00;;
52642;SDS011;38531;53.296;6.614;2023-05-07T01:50:30;26.90;;;15.65;;
52642;SDS011;38531;53.296;6.614;2023-05-07T01:52:57;28.45;;;16.83;;
52642;SDS011;38531;53.296;6.614;2023-05-07T01:55:22;25.42;;;16.05;;
52642;SDS011;38531;53.296;6.614;2023-05-07T01:57:48;25.65;;;15.75;;
52642;SDS011;38531;53.296;6.614;2023-05-07T02:00:14;24.77;;;15.45;;
52642;SDS011;38531;53.296;6.614;2023-05-07T02:02:40;25.67;;;14.50;;
52642;SDS011;38531;53.296;6.614;2023-05-07T02:05:06;33.90;;;17.90;;
52642;SDS011;38531;53.296;6.614;2023-05-07T02:07:32;30.48;;;18.55;;
52642;SDS011;38531;53.296;6.614;2023-05-07T02:09:57;30.80;;;18.08;;
52642;SDS011;38531;53.296;6.614;2023-05-07T02:12:23;36.45;;;18.48;;
52642;SDS011;38531;53.296;6.614;2023-05-07T02:14:49;33.42;;;19.15;;
52642;SDS011;38531;53.296;6.614;2023-05-07T02:17:15;32.65;;;18.00;;
52642;SDS011;38531;53.296;6.614;2023-05-07T02:19:40;31.08;;;17.73;;
52642;SDS011;38531;53.296;6.614;2023-05-07T02:22:06;32.58;;;17.98;;
52642;SDS011;38531;53.296;6.614;2023-05-07T02:24:32;28.83;;;17.55;;
52642;SDS011;38531;53.296;6.614;2023-05-07T02:26:58;31.88;;;16.77;;
52642;SDS011;38531;53.296;6.614;2023-05-07T02:29:24;26.88;;;16.08;;
52642;SDS011;38531;53.296;6.614;2023-05-07T02:31:49;28.30;;;16.77;;
52642;SDS011;38531;53.296;6.614;2023-05-07T02:34:17;33.97;;;18.35;;
52642;SDS011;38531;53.296;6.614;2023-05-07T02:36:43;31.63;;;17.27;;
52642;SDS011;38531;53.296;6.614;2023-05-07T02:39:10;32.17;;;18.40;;
52642;SDS011;38531;53.296;6.614;2023-05-07T02:41:37;40.28;;;22.55;;
52642;SDS011;38531;53.296;6.614;2023-05-07T02:44:03;37.90;;;20.10;;
52642;SDS011;38531;53.296;6.614;2023-05-07T02:46:29;41.15;;;22.10;;
52642;SDS011;38531;53.296;6.614;2023-05-07T02:48:54;37.22;;;20.85;;
52642;SDS011;38531;53.296;6.614;2023-05-07T02:51:21;35.80;;;19.42;;
52642;SDS011;38531;53.296;6.614;2023-05-07T02:53:47;36.33;;;20.60;;
52642;SDS011;38531;53.296;6.614;2023-05-07T02:56:13;34.35;;;19.80;;
52642;SDS011;38531;53.296;6.614;2023-05-07T02:58:39;40.05;;;23.40;;
52642;SDS011;38531;53.296;6.614;2023-05-07T03:01:05;40.40;;;22.77;;
52642;SDS011;38531;53.296;6.614;2023-05-07T03:03:31;40.15;;;22.60;;
52642;SDS011;38531;53.296;6.614;2023-05-07T03:05:57;42.35;;;24.08;;
52642;SDS011;38531;53.296;6.614;2023-05-07T03:08:23;36.72;;;20.73;;
52642;SDS011;38531;53.296;6.614;2023-05-07T03:10:49;37.15;;;21.50;;
52642;SDS011;38531;53.296;6.614;2023-05-07T03:13:15;37.28;;;22.05;;
52642;SDS011;38531;53.296;6.614;2023-05-07T03:15:41;38.17;;;21.38;;
52642;SDS011;38531;53.296;6.614;2023-05-07T03:18:06;34.33;;;19.27;;
52642;SDS011;38531;53.296;6.614;2023-05-07T03:20:32;38.72;;;21.20;;
52642;SDS011;38531;53.296;6.614;2023-05-07T03:22:58;38.03;;;21.17;;
52642;SDS011;38531;53.296;6.614;2023-05-07T03:25:23;46.05;;;22.80;;
52642;SDS011;38531;53.296;6.614;2023-05-07T03:27:49;39.90;;;22.05;;
52642;SDS011;38531;53.296;6.614;2023-05-07T03:30:15;38.53;;;20.92;;
52642;SDS011;38531;53.296;6.614;2023-05-07T03:32:40;44.30;;;24.10;;
52642;SDS011;38531;53.296;6.614;2023-05-07T03:35:06;42.03;;;23.75;;
52642;SDS011;38531;53.296;6.614;2023-05-07T03:37:32;43.20;;;24.10;;
52642;SDS011;38531;53.296;6.614;2023-05-07T03:39:58;38.88;;;22.48;;
52642;SDS011;38531;53.296;6.614;2023-05-07T03:42:24;44.60;;;25.38;;
52642;SDS011;38531;53.296;6.614;2023-05-07T03:44:50;45.53;;;24.83;;
52642;SDS011;38531;53.296;6.614;2023-05-07T03:47:16;49.03;;;24.65;;
52642;SDS011;38531;53.296;6.614;2023-05-07T03:49:41;46.75;;;25.55;;
52642;SDS011;38531;53.296;6.614;2023-05-07T03:52:07;46.28;;;24.27;;
52642;SDS011;38531;53.296;6.614;2023-05-07T03:54:32;48.95;;;25.50;;
52642;SDS011;38531;53.296;6.614;2023-05-07T03:56:58;49.25;;;26.15;;
52642;SDS011;38531;53.296;6.614;2023-05-07T03:59:24;41.83;;;24.13;;
52642;SDS011;38531;53.296;6.614;2023-05-07T04:01:50;45.00;;;24.98;;
52642;SDS011;38531;53.296;6.614;2023-05-07T04:04:16;38.60;;;22.02;;
52642;SDS011;38531;53.296;6.614;2023-05-07T04:06:41;32.47;;;20.15;;
52642;SDS011;38531;53.296;6.614;2023-05-07T04:09:07;29.40;;;16.92;;
52642;SDS011;38531;53.296;6.614;2023-05-07T04:11:33;28.40;;;17.25;;
52642;SDS011;38531;53.296;6.614;2023-05-07T04:14:00;29.73;;;17.90;;
52642;SDS011;38531;53.296;6.614;2023-05-07T04:16:26;27.80;;;16.63;;
52642;SDS011;38531;53.296;6.614;2023-05-07T04:18:52;34.20;;;19.60;;
52642;SDS011;38531;53.296;6.614;2023-05-07T04:21:18;35.67;;;20.25;;
52642;SDS011;38531;53.296;6.614;2023-05-07T04:23:45;35.08;;;20.27;;
52642;SDS011;38531;53.296;6.614;2023-05-07T04:26:12;37.47;;;21.20;;
52642;SDS011;38531;53.296;6.614;2023-05-07T04:28:38;37.47;;;20.88;;
52642;SDS011;38531;53.296;6.614;2023-05-07T04:31:05;33.83;;;20.27;;
52642;SDS011;38531;53.296;6.614;2023-05-07T04:33:31;32.47;;;18.48;;
52642;SDS011;38531;53.296;6.614;2023-05-07T04:35:58;35.03;;;19.77;;
52642;SDS011;38531;53.296;6.614;2023-05-07T04:38:31;31.13;;;18.45;;
52642;SDS011;38531;53.296;6.614;2023-05-07T04:40:57;35.65;;;21.00;;
52642;SDS011;38531;53.296;6.614;2023-05-07T04:43:27;33.38;;;18.95;;
52642;SDS011;38531;53.296;6.614;2023-05-07T04:45:53;35.15;;;19.70;;
52642;SDS011;38531;53.296;6.614;2023-05-07T04:48:18;35.38;;;20.10;;
52642;SDS011;38531;53.296;6.614;2023-05-07T04:50:48;35.58;;;18.90;;
52642;SDS011;38531;53.296;6.614;2023-05-07T04:53:15;35.10;;;20.35;;
52642;SDS011;38531;53.296;6.614;2023-05-07T04:55:41;42.35;;;21.83;;
52642;SDS011;38531;53.296;6.614;2023-05-07T04:58:07;40.95;;;23.48;;
52642;SDS011;38531;53.296;6.614;2023-05-07T05:00:32;43.97;;;22.88;;
52642;SDS011;38531;53.296;6.614;2023-05-07T05:02:58;39.78;;;22.50;;
52642;SDS011;38531;53.296;6.614;2023-05-07T05:05:24;43.67;;;24.55;;
52642;SDS011;38531;53.296;6.614;2023-05-07T05:07:50;45.08;;;26.15;;
52642;SDS011;38531;53.296;6.614;2023-05-07T05:10:16;46.10;;;27.20;;
52642;SDS011;38531;53.296;6.614;2023-05-07T05:12:42;49.63;;;27.90;;
52642;SDS011;38531;53.296;6.614;2023-05-07T05:15:08;49.80;;;26.70;;
52642;SDS011;38531;53.296;6.614;2023-05-07T05:17:35;40.60;;;23.33;;
52642;SDS011;38531;53.296;6.614;2023-05-07T05:20:01;42.20;;;24.73;;
52642;SDS011;38531;53.296;6.614;2023-05-07T05:22:27;45.75;;;25.42;;
52642;SDS011;38531;53.296;6.614;2023-05-07T05:24:56;45.05;;;25.58;;
52642;SDS011;38531;53.296;6.614;2023-05-07T05:27:21;47.22;;;26.00;;
52642;SDS011;38531;53.296;6.614;2023-05-07T05:29:47;38.72;;;21.17;;
52642;SDS011;38531;53.296;6.614;2023-05-07T05:32:13;40.88;;;23.75;;
52642;SDS011;38531;53.296;6.614;2023-05-07T05:34:39;46.97;;;25.05;;
52642;SDS011;38531;53.296;6.614;2023-05-07T05:37:04;43.85;;;23.45;;
52642;SDS011;38531;53.296;6.614;2023-05-07T05:39:30;37.35;;;21.95;;
52642;SDS011;38531;53.296;6.614;2023-05-07T05:41:56;42.90;;;24.48;;
52642;SDS011;38531;53.296;6.614;2023-05-07T05:44:21;44.80;;;24.60;;
52642;SDS011;38531;53.296;6.614;2023-05-07T05:46:47;43.05;;;23.95;;
52642;SDS011;38531;53.296;6.614;2023-05-07T05:49:14;46.83;;;24.65;;
52642;SDS011;38531;53.296;6.614;2023-05-07T05:51:40;41.13;;;22.77;;
52642;SDS011;38531;53.296;6.614;2023-05-07T05:54:06;41.92;;;24.33;;
52642;SDS011;38531;53.296;6.614;2023-05-07T05:56:32;41.05;;;23.95;;
52642;SDS011;38531;53.296;6.614;2023-05-07T05:58:58;40.35;;;24.45;;
52642;SDS011;38531;53.296;6.614;2023-05-07T06:01:24;40.20;;;23.67;;
52642;SDS011;38531;53.296;6.614;2023-05-07T06:03:50;40.58;;;24.15;;
52642;SDS011;38531;53.296;6.614;2023-05-07T06:06:16;44.33;;;24.02;;
52642;SDS011;38531;53.296;6.614;2023-05-07T06:08:42;42.83;;;22.50;;
52642;SDS011;38531;53.296;6.614;2023-05-07T06:11:08;43.92;;;25.08;;
52642;SDS011;38531;53.296;6.614;2023-05-07T06:13:33;40.05;;;22.80;;
52642;SDS011;38531;53.296;6.614;2023-05-07T06:15:59;40.85;;;22.90;;
52642;SDS011;38531;53.296;6.614;2023-05-07T06:18:25;40.38;;;23.95;;
52642;SDS011;38531;53.296;6.614;2023-05-07T06:20:51;39.08;;;22.35;;
52642;SDS011;38531;53.296;6.614;2023-05-07T06:23:17;33.83;;;19.70;;
52642;SDS011;38531;53.296;6.614;2023-05-07T06:25:48;31.02;;;18.40;;
52642;SDS011;38531;53.296;6.614;2023-05-07T06:28:15;37.15;;;22.05;;
52642;SDS011;38531;53.296;6.614;2023-05-07T06:30:41;33.63;;;18.92;;
52642;SDS011;38531;53.296;6.614;2023-05-07T06:33:06;34.17;;;19.13;;
52642;SDS011;38531;53.296;6.614;2023-05-07T06:35:32;33.97;;;17.98;;
52642;SDS011;38531;53.296;6.614;2023-05-07T06:37:58;35.00;;;19.55;;
52642;SDS011;38531;53.296;6.614;2023-05-07T06:40:24;34.13;;;19.38;;
52642;SDS011;38531;53.296;6.614;2023-05-07T06:42:50;30.40;;;18.75;;
52642;SDS011;38531;53.296;6.614;2023-05-07T06:45:16;32.63;;;19.30;;
52642;SDS011;38531;53.296;6.614;2023-05-07T06:47:42;34.50;;;20.48;;
52642;SDS011;38531;53.296;6.614;2023-05-07T06:50:07;35.25;;;19.90;;
52642;SDS011;38531;53.296;6.614;2023-05-07T06:52:34;28.33;;;17.27;;
52642;SDS011;38531;53.296;6.614;2023-05-07T06:55:00;32.75;;;18.88;;
52642;SDS011;38531;53.296;6.614;2023-05-07T06:57:26;30.17;;;18.35;;
52642;SDS011;38531;53.296;6.614;2023-05-07T06:59:52;31.17;;;18.25;;
52642;SDS011;38531;53.296;6.614;2023-05-07T07:02:17;33.72;;;18.20;;
52642;SDS011;38531;53.296;6.614;2023-05-07T07:04:43;32.83;;;20.02;;
52642;SDS011;38531;53.296;6.614;2023-05-07T07:07:10;34.38;;;19.85;;
52642;SDS011;38531;53.296;6.614;2023-05-07T07:09:35;33.75;;;19.42;;
52642;SDS011;38531;53.296;6.614;2023-05-07T07:12:01;37.13;;;22.73;;
52642;SDS011;38531;53.296;6.614;2023-05-07T07:14:27;36.55;;;21.92;;
52642;SDS011;38531;53.296;6.614;2023-05-07T07:16:52;36.17;;;22.80;;
52642;SDS011;38531;53.296;6.614;2023-05-07T07:19:18;43.13;;;24.77;;
52642;SDS011;38531;53.296;6.614;2023-05-07T07:21:45;40.80;;;23.55;;
52642;SDS011;38531;53.296;6.614;2023-05-07T07:24:11;39.35;;;24.00;;
52642;SDS011;38531;53.296;6.614;2023-05-07T07:26:37;43.08;;;25.58;;
52642;SDS011;38531;53.296;6.614;2023-05-07T07:29:02;42.17;;;24.65;;
52642;SDS011;38531;53.296;6.614;2023-05-07T07:31:28;40.88;;;23.70;;
52642;SDS011;38531;53.296;6.614;2023-05-07T07:33:54;40.30;;;23.33;;
52642;SDS011;38531;53.296;6.614;2023-05-07T07:36:20;41.17;;;24.27;;
52642;SDS011;38531;53.296;6.614;2023-05-07T07:38:46;40.13;;;24.70;;
52642;SDS011;38531;53.296;6.614;2023-05-07T07:41:11;40.17;;;23.20;;
52642;SDS011;38531;53.296;6.614;2023-05-07T07:43:37;42.65;;;24.38;;
52642;SDS011;38531;53.296;6.614;2023-05-07T07:46:02;36.65;;;22.13;;
52642;SDS011;38531;53.296;6.614;2023-05-07T07:48:28;37.72;;;22.70;;
52642;SDS011;38531;53.296;6.614;2023-05-07T07:50:54;33.78;;;20.98;;
52642;SDS011;38531;53.296;6.614;2023-05-07T07:53:20;30.05;;;18.95;;
52642;SDS011;38531;53.296;6.614;2023-05-07T07:55:45;33.60;;;20.67;;
52642;SDS011;38531;53.296;6.614;2023-05-07T07:58:11;26.88;;;16.95;;
52642;SDS011;38531;53.296;6.614;2023-05-07T08:00:37;26.98;;;17.48;;
52642;SDS011;38531;53.296;6.614;2023-05-07T08:03:02;25.92;;;16.25;;
52642;SDS011;38531;53.296;6.614;2023-05-07T08:05:28;26.67;;;16.63;;
52642;SDS011;38531;53.296;6.614;2023-05-07T08:07:54;34.03;;;18.80;;
52642;SDS011;38531;53.296;6.614;2023-05-07T08:10:21;27.85;;;17.90;;
52642;SDS011;38531;53.296;6.614;2023-05-07T08:12:49;26.15;;;15.93;;
52642;SDS011;38531;53.296;6.614;2023-05-07T08:15:16;27.40;;;17.73;;
52642;SDS011;38531;53.296;6.614;2023-05-07T08:17:42;23.67;;;15.38;;
52642;SDS011;38531;53.296;6.614;2023-05-07T08:20:08;31.25;;;19.70;;
52642;SDS011;38531;53.296;6.614;2023-05-07T08:22:34;29.88;;;18.02;;
52642;SDS011;38531;53.296;6.614;2023-05-07T08:25:01;32.60;;;18.60;;
52642;SDS011;38531;53.296;6.614;2023-05-07T08:27:27;34.63;;;20.83;;
52642;SDS011;38531;53.296;6.614;2023-05-07T08:29:53;29.40;;;19.00;;
52642;SDS011;38531;53.296;6.614;2023-05-07T08:32:18;28.25;;;18.08;;
52642;SDS011;38531;53.296;6.614;2023-05-07T08:34:44;29.13;;;17.65;;
52642;SDS011;38531;53.296;6.614;2023-05-07T08:37:10;31.90;;;19.15;;
52642;SDS011;38531;53.296;6.614;2023-05-07T08:39:35;28.27;;;18.20;;
52642;SDS011;38531;53.296;6.614;2023-05-07T08:42:01;31.98;;;19.88;;
52642;SDS011;38531;53.296;6.614;2023-05-07T08:44:33;30.05;;;19.02;;
52642;SDS011;38531;53.296;6.614;2023-05-07T08:47:00;28.85;;;17.52;;
52642;SDS011;38531;53.296;6.614;2023-05-07T08:49:29;28.25;;;18.35;;
52642;SDS011;38531;53.296;6.614;2023-05-07T08:51:55;30.20;;;18.75;;
52642;SDS011;38531;53.296;6.614;2023-05-07T08:54:21;31.63;;;19.38;;
52642;SDS011;38531;53.296;6.614;2023-05-07T08:56:47;29.02;;;17.67;;
52642;SDS011;38531;53.296;6.614;2023-05-07T08:59:13;27.70;;;16.08;;
52642;SDS011;38531;53.296;6.614;2023-05-07T09:01:39;23.30;;;14.68;;
52642;SDS011;38531;53.296;6.614;2023-05-07T09:04:04;24.17;;;14.75;;
52642;SDS011;38531;53.296;6.614;2023-05-07T09:06:31;25.90;;;16.00;;
52642;SDS011;38531;53.296;6.614;2023-05-07T09:08:58;23.10;;;14.52;;
52642;SDS011;38531;53.296;6.614;2023-05-07T09:11:26;22.33;;;14.63;;
52642;SDS011;38531;53.296;6.614;2023-05-07T09:13:55;21.63;;;13.50;;
52642;SDS011;38531;53.296;6.614;2023-05-07T09:16:23;24.13;;;15.70;;
52642;SDS011;38531;53.296;6.614;2023-05-07T09:18:53;22.60;;;13.40;;
52642;SDS011;38531;53.296;6.614;2023-05-07T09:21:20;18.95;;;11.65;;
52642;SDS011;38531;53.296;6.614;2023-05-07T09:23:48;18.20;;;11.07;;
52642;SDS011;38531;53.296;6.614;2023-05-07T09:26:15;19.15;;;12.48;;
52642;SDS011;38531;53.296;6.614;2023-05-07T09:28:41;18.75;;;11.02;;
52642;SDS011;38531;53.296;6.614;2023-05-07T09:31:08;21.05;;;12.20;;
52642;SDS011;38531;53.296;6.614;2023-05-07T09:33:34;18.73;;;10.98;;
52642;SDS011;38531;53.296;6.614;2023-05-07T09:36:04;18.55;;;11.85;;
52642;SDS011;38531;53.296;6.614;2023-05-07T09:38:31;20.75;;;12.45;;
52642;SDS011;38531;53.296;6.614;2023-05-07T09:41:01;19.35;;;11.60;;
52642;SDS011;38531;53.296;6.614;2023-05-07T09:43:32;21.98;;;12.23;;
52642;SDS011;38531;53.296;6.614;2023-05-07T09:46:01;18.58;;;11.15;;
52642;SDS011;38531;53.296;6.614;2023-05-07T09:48:29;18.65;;;12.10;;
52642;SDS011;38531;53.296;6.614;2023-05-07T09:50:58;17.25;;;11.10;;
52642;SDS011;38531;53.296;6.614;2023-05-07T09:53:29;20.58;;;13.10;;
52642;SDS011;38531;53.296;6.614;2023-05-07T09:55:56;20.70;;;13.00;;
52642;SDS011;38531;53.296;6.614;2023-05-07T09:58:22;19.58;;;11.98;;
52642;SDS011;38531;53.296;6.614;2023-05-07T10:00:49;15.05;;;10.55;;
52642;SDS011;38531;53.296;6.614;2023-05-07T10:03:16;20.15;;;11.95;;
52642;SDS011;38531;53.296;6.614;2023-05-07T10:05:44;18.98;;;11.68;;
52642;SDS011;38531;53.296;6.614;2023-05-07T10:08:12;15.93;;;10.93;;
52642;SDS011;38531;53.296;6.614;2023-05-07T10:10:39;16.00;;;10.48;;
52642;SDS011;38531;53.296;6.614;2023-05-07T10:13:06;17.27;;;10.35;;
52642;SDS011;38531;53.296;6.614;2023-05-07T10:15:35;15.63;;;10.65;;
52642;SDS011;38531;53.296;6.614;2023-05-07T10:18:03;15.05;;;9.38;;
52642;SDS011;38531;53.296;6.614;2023-05-07T10:20:31;15.35;;;9.32;;
52642;SDS011;38531;53.296;6.614;2023-05-07T10:22:58;11.70;;;8.43;;
52642;SDS011;38531;53.296;6.614;2023-05-07T10:25:28;14.70;;;8.57;;
52642;SDS011;38531;53.296;6.614;2023-05-07T10:27:57;14.77;;;9.32;;
52642;SDS011;38531;53.296;6.614;2023-05-07T10:33:19;13.40;;;8.68;;
52642;SDS011;38531;53.296;6.614;2023-05-07T10:35:50;12.68;;;7.88;;
52642;SDS011;38531;53.296;6.614;2023-05-07T10:38:20;13.55;;;8.90;;
52642;SDS011;38531;53.296;6.614;2023-05-07T10:40:46;13.63;;;9.82;;
52642;SDS011;38531;53.296;6.614;2023-05-07T10:43:12;15.85;;;9.75;;
52642;SDS011;38531;53.296;6.614;2023-05-07T10:45:38;12.25;;;8.05;;
52642;SDS011;38531;53.296;6.614;2023-05-07T10:48:07;13.05;;;8.30;;
52642;SDS011;38531;53.296;6.614;2023-05-07T10:50:43;9.48;;;6.65;;
52642;SDS011;38531;53.296;6.614;2023-05-07T10:53:27;14.25;;;9.23;;
52642;SDS011;38531;53.296;6.614;2023-05-07T10:58:42;11.05;;;7.93;;
52642;SDS011;38531;53.296;6.614;2023-05-07T11:01:07;10.77;;;7.53;;
52642;SDS011;38531;53.296;6.614;2023-05-07T11:03:35;11.57;;;8.45;;
52642;SDS011;38531;53.296;6.614;2023-05-07T11:06:13;11.80;;;8.57;;
52642;SDS011;38531;53.296;6.614;2023-05-07T11:11:19;11.20;;;8.18;;
52642;SDS011;38531;53.296;6.614;2023-05-07T11:14:05;12.88;;;8.63;;
52642;SDS011;38531;53.296;6.614;2023-05-07T11:16:31;9.63;;;6.90;;
52642;SDS011;38531;53.296;6.614;2023-05-07T11:18:58;10.85;;;8.02;;
52642;SDS011;38531;53.296;6.614;2023-05-07T11:21:40;10.60;;;7.70;;
52642;SDS011;38531;53.296;6.614;2023-05-07T11:24:09;11.00;;;8.60;;
52642;SDS011;38531;53.296;6.614;2023-05-07T11:26:42;11.98;;;7.85;;
52642;SDS011;38531;53.296;6.614;2023-05-07T11:29:15;11.05;;;7.97;;
52642;SDS011;38531;53.296;6.614;2023-05-07T11:31:48;12.30;;;7.78;;
52642;SDS011;38531;53.296;6.614;2023-05-07T11:34:24;12.45;;;8.18;;
52642;SDS011;38531;53.296;6.614;2023-05-07T11:36:51;9.57;;;6.35;;
52642;SDS011;38531;53.296;6.614;2023-05-07T11:41:50;10.05;;;7.28;;
52642;SDS011;38531;53.296;6.614;2023-05-07T11:44:15;10.98;;;8.30;;
52642;SDS011;38531;53.296;6.614;2023-05-07T11:46:44;9.48;;;6.78;;
52642;SDS011;38531;53.296;6.614;2023-05-07T11:49:10;9.57;;;7.10;;
52642;SDS011;38531;53.296;6.614;2023-05-07T11:51:36;9.65;;;6.70;;
52642;SDS011;38531;53.296;6.614;2023-05-07T11:54:05;10.68;;;7.47;;
52642;SDS011;38531;53.296;6.614;2023-05-07T11:56:36;11.45;;;8.18;;
52642;SDS011;38531;53.296;6.614;2023-05-07T11:59:02;10.68;;;7.68;;
52642;SDS011;38531;53.296;6.614;2023-05-07T12:01:28;9.73;;;6.88;;
52642;SDS011;38531;53.296;6.614;2023-05-07T12:03:53;10.57;;;8.20;;
52642;SDS011;38531;53.296;6.614;2023-05-07T12:06:19;10.35;;;7.38;;
52642;SDS011;38531;53.296;6.614;2023-05-07T12:08:45;9.73;;;7.20;;
52642;SDS011;38531;53.296;6.614;2023-05-07T12:11:24;8.80;;;6.78;;
52642;SDS011;38531;53.296;6.614;2023-05-07T12:13:50;8.60;;;7.03;;
52642;SDS011;38531;53.296;6.614;2023-05-07T12:16:16;8.98;;;7.13;;
52642;SDS011;38531;53.296;6.614;2023-05-07T12:18:43;8.93;;;7.10;;
52642;SDS011;38531;53.296;6.614;2023-05-07T12:21:10;7.70;;;6.25;;
52642;SDS011;38531;53.296;6.614;2023-05-07T12:23:36;10.60;;;7.15;;
52642;SDS011;38531;53.296;6.614;2023-05-07T12:26:03;12.43;;;9.18;;
52642;SDS011;38531;53.296;6.614;2023-05-07T12:28:29;11.93;;;8.68;;
52642;SDS011;38531;53.296;6.614;2023-05-07T12:30:55;8.75;;;6.78;;
52642;SDS011;38531;53.296;6.614;2023-05-07T12:33:25;10.20;;;8.85;;
52642;SDS011;38531;53.296;6.614;2023-05-07T12:35:53;9.60;;;8.25;;
52642;SDS011;38531;53.296;6.614;2023-05-07T12:38:20;10.57;;;9.07;;
52642;SDS011;38531;53.296;6.614;2023-05-07T12:40:47;11.38;;;9.07;;
52642;SDS011;38531;53.296;6.614;2023-05-07T12:45:42;10.88;;;8.45;;
52642;SDS011;38531;53.296;6.614;2023-05-07T12:48:09;9.63;;;8.13;;
52642;SDS011;38531;53.296;6.614;2023-05-07T12:50:35;9.10;;;7.00;;
52642;SDS011;38531;53.296;6.614;2023-05-07T12:53:04;8.82;;;7.93;;
52642;SDS011;38531;53.296;6.614;2023-05-07T12:55:39;8.45;;;7.28;;
52642;SDS011;38531;53.296;6.614;2023-05-07T13:00:55;10.18;;;7.65;;
52642;SDS011;38531;53.296;6.614;2023-05-07T13:03:24;9.02;;;6.63;;
52642;SDS011;38531;53.296;6.614;2023-05-07T13:05:53;10.75;;;7.78;;
52642;SDS011;38531;53.296;6.614;2023-05-07T13:08:28;8.23;;;7.30;;
52642;SDS011;38531;53.296;6.614;2023-05-07T13:10:54;11.23;;;8.38;;
52642;SDS011;38531;53.296;6.614;2023-05-07T13:13:20;9.05;;;7.88;;
52642;SDS011;38531;53.296;6.614;2023-05-07T13:15:47;9.18;;;7.90;;
52642;SDS011;38531;53.296;6.614;2023-05-07T13:18:13;9.20;;;7.03;;
52642;SDS011;38531;53.296;6.614;2023-05-07T13:20:39;9.13;;;7.25;;
52642;SDS011;38531;53.296;6.614;2023-05-07T13:23:04;9.15;;;7.18;;
52642;SDS011;38531;53.296;6.614;2023-05-07T13:25:30;8.20;;;6.45;;
52642;SDS011;38531;53.296;6.614;2023-05-07T13:27:56;11.57;;;7.30;;
52642;SDS011;38531;53.296;6.614;2023-05-07T13:30:22;9.13;;;7.20;;
52642;SDS011;38531;53.296;6.614;2023-05-07T13:32:48;7.50;;;6.70;;
52642;SDS011;38531;53.296;6.614;2023-05-07T13:35:15;7.93;;;6.45;;
52642;SDS011;38531;53.296;6.614;2023-05-07T13:37:41;9.30;;;6.63;;
52642;SDS011;38531;53.296;6.614;2023-05-07T13:40:07;8.80;;;6.43;;
52642;SDS011;38531;53.296;6.614;2023-05-07T13:42:33;8.60;;;5.95;;
52642;SDS011;38531;53.296;6.614;2023-05-07T13:44:59;7.63;;;5.95;;
52642;SDS011;38531;53.296;6.614;2023-05-07T13:47:25;5.85;;;4.97;;
52642;SDS011;38531;53.296;6.614;2023-05-07T13:49:50;6.95;;;5.60;;
52642;SDS011;38531;53.296;6.614;2023-05-07T13:52:16;6.80;;;5.47;;
52642;SDS011;38531;53.296;6.614;2023-05-07T13:54:42;7.30;;;5.50;;
52642;SDS011;38531;53.296;6.614;2023-05-07T13:57:08;7.10;;;5.97;;
52642;SDS011;38531;53.296;6.614;2023-05-07T13:59:34;7.97;;;6.80;;
52642;SDS011;38531;53.296;6.614;2023-05-07T14:01:59;8.32;;;6.47;;
52642;SDS011;38531;53.296;6.614;2023-05-07T14:04:25;8.38;;;6.47;;
52642;SDS011;38531;53.296;6.614;2023-05-07T14:06:51;6.72;;;5.80;;
52642;SDS011;38531;53.296;6.614;2023-05-07T14:09:16;6.57;;;5.97;;
52642;SDS011;38531;53.296;6.614;2023-05-07T14:11:42;5.50;;;4.90;;
52642;SDS011;38531;53.296;6.614;2023-05-07T14:14:08;6.45;;;5.30;;
52642;SDS011;38531;53.296;6.614;2023-05-07T14:16:36;7.05;;;6.05;;
52642;SDS011;38531;53.296;6.614;2023-05-07T14:19:02;7.82;;;5.82;;
52642;SDS011;38531;53.296;6.614;2023-05-07T14:21:28;6.13;;;5.53;;
52642;SDS011;38531;53.296;6.614;2023-05-07T14:23:55;7.78;;;6.15;;
52642;SDS011;38531;53.296;6.614;2023-05-07T14:26:21;6.00;;;5.28;;
52642;SDS011;38531;53.296;6.614;2023-05-07T14:28:48;5.88;;;5.28;;
52642;SDS011;38531;53.296;6.614;2023-05-07T14:31:14;6.57;;;5.25;;
52642;SDS011;38531;53.296;6.614;2023-05-07T14:33:40;5.32;;;4.82;;
52642;SDS011;38531;53.296;6.614;2023-05-07T14:36:06;6.88;;;5.22;;
52642;SDS011;38531;53.296;6.614;2023-05-07T14:38:31;5.65;;;5.03;;
52642;SDS011;38531;53.296;6.614;2023-05-07T14:40:58;5.18;;;4.60;;